sensor_id;sensor_type;location;lat;lon;timestamp;temperature;humidity
298;DHT22;133;49.626;9.680;2023-04-03T00:01:28;3.30;85.40
298;DHT22;133;49.626;9.680;2023-04-03T00:03:54;3.20;85.40
298;DHT22;133;49.626;9.680;2023-04-03T00:06:20;3.20;85.70
298;DHT22;133;49.626;9.680;2023-04-03T00:08:46;3.20;85.90
298;DHT22;133;49.626;9.680;2023-04-03T00:11:12;3.10;86.00
298;DHT22;133;49.626;9.680;2023-04-03T00:13:39;3.00;87.00
298;DHT22;133;49.626;9.680;2023-04-03T00:16:06;2.90;87.90
298;DHT22;133;49.626;9.680;2023-04-03T00:18:32;3.00;87.90
298;DHT22;133;49.626;9.680;2023-04-03T00:20:57;3.00;87.00
298;DHT22;133;49.626;9.680;2023-04-03T00:23:23;3.00;87.20
298;DHT22;133;49.626;9.680;2023-04-03T00:25:49;3.10;87.20
298;DHT22;133;49.626;9.680;2023-04-03T00:28:15;3.00;87.10
298;DHT22;133;49.626;9.680;2023-04-03T00:30:41;3.00;86.60
298;DHT22;133;49.626;9.680;2023-04-03T00:33:06;3.00;86.50
298;DHT22;133;49.626;9.680;2023-04-03T00:35:34;2.90;86.80
298;DHT22;133;49.626;9.680;2023-04-03T00:38:00;2.90;87.30
298;DHT22;133;49.626;9.680;2023-04-03T00:40:26;2.80;86.50
298;DHT22;133;49.626;9.680;2023-04-03T00:42:57;2.70;88.80
298;DHT22;133;49.626;9.680;2023-04-03T00:45:32;2.70;88.60
298;DHT22;133;49.626;9.680;2023-04-03T00:48:00;2.70;88.70
298;DHT22;133;49.626;9.680;2023-04-03T00:50:28;2.70;88.60
298;DHT22;133;49.626;9.680;2023-04-03T00:52:55;2.70;88.60
298;DHT22;133;49.626;9.680;2023-04-03T00:55:21;2.80;89.30
298;DHT22;133;49.626;9.680;2023-04-03T00:57:47;2.80;88.80
298;DHT22;133;49.626;9.680;2023-04-03T01:00:17;2.80;89.40
298;DHT22;133;49.626;9.680;2023-04-03T01:02:44;2.70;89.70
298;DHT22;133;49.626;9.680;2023-04-03T01:05:10;2.70;90.10
298;DHT22;133;49.626;9.680;2023-04-03T01:07:37;2.70;89.40
298;DHT22;133;49.626;9.680;2023-04-03T01:10:11;2.60;88.90
298;DHT22;133;49.626;9.680;2023-04-03T01:12:40;2.70;89.30
298;DHT22;133;49.626;9.680;2023-04-03T01:15:10;2.60;88.40
298;DHT22;133;49.626;9.680;2023-04-03T01:25:26;2.60;88.90
298;DHT22;133;49.626;9.680;2023-04-03T01:27:51;2.60;90.00
298;DHT22;133;49.626;9.680;2023-04-03T01:30:19;2.60;89.70
298;DHT22;133;49.626;9.680;2023-04-03T01:32:45;2.60;89.60
298;DHT22;133;49.626;9.680;2023-04-03T01:35:11;2.60;89.30
298;DHT22;133;49.626;9.680;2023-04-03T01:37:37;2.70;89.00
298;DHT22;133;49.626;9.680;2023-04-03T01:40:03;2.60;88.30
298;DHT22;133;49.626;9.680;2023-04-03T01:42:29;2.60;89.30
298;DHT22;133;49.626;9.680;2023-04-03T01:44:55;2.50;89.30
298;DHT22;133;49.626;9.680;2023-04-03T01:47:21;2.50;89.20
298;DHT22;133;49.626;9.680;2023-04-03T01:49:47;2.50;88.60
298;DHT22;133;49.626;9.680;2023-04-03T01:52:13;2.50;89.40
298;DHT22;133;49.626;9.680;2023-04-03T01:54:39;2.50;89.70
298;DHT22;133;49.626;9.680;2023-04-03T01:57:04;2.40;87.70
298;DHT22;133;49.626;9.680;2023-04-03T01:59:30;2.50;88.00
298;DHT22;133;49.626;9.680;2023-04-03T02:01:56;2.70;88.70
298;DHT22;133;49.626;9.680;2023-04-03T02:04:22;2.70;88.20
298;DHT22;133;49.626;9.680;2023-04-03T02:06:47;2.80;88.80
298;DHT22;133;49.626;9.680;2023-04-03T02:09:13;2.70;88.00
298;DHT22;133;49.626;9.680;2023-04-03T02:11:39;2.70;88.60
298;DHT22;133;49.626;9.680;2023-04-03T02:14:05;2.40;86.90
298;DHT22;133;49.626;9.680;2023-04-03T02:16:30;2.40;87.70
298;DHT22;133;49.626;9.680;2023-04-03T02:18:56;2.50;88.70
298;DHT22;133;49.626;9.680;2023-04-03T02:21:22;2.60;88.20
298;DHT22;133;49.626;9.680;2023-04-03T02:23:48;2.60;88.70
298;DHT22;133;49.626;9.680;2023-04-03T02:26:15;2.60;89.40
298;DHT22;133;49.626;9.680;2023-04-03T02:28:41;2.70;89.30
298;DHT22;133;49.626;9.680;2023-04-03T02:31:07;2.70;89.90
298;DHT22;133;49.626;9.680;2023-04-03T02:33:34;2.70;89.50
298;DHT22;133;49.626;9.680;2023-04-03T02:36:04;2.70;88.30
298;DHT22;133;49.626;9.680;2023-04-03T02:38:30;2.70;88.50
298;DHT22;133;49.626;9.680;2023-04-03T02:41:04;2.50;87.30
298;DHT22;133;49.626;9.680;2023-04-03T02:43:30;2.50;87.10
298;DHT22;133;49.626;9.680;2023-04-03T02:45:55;2.50;87.40
298;DHT22;133;49.626;9.680;2023-04-03T02:48:22;2.50;87.70
298;DHT22;133;49.626;9.680;2023-04-03T02:50:48;2.60;88.10
298;DHT22;133;49.626;9.680;2023-04-03T02:53:13;2.60;87.80
298;DHT22;133;49.626;9.680;2023-04-03T02:55:40;2.70;88.60
298;DHT22;133;49.626;9.680;2023-04-03T02:58:06;2.70;88.80
298;DHT22;133;49.626;9.680;2023-04-03T03:00:32;2.80;87.40
298;DHT22;133;49.626;9.680;2023-04-03T03:02:58;2.80;86.60
298;DHT22;133;49.626;9.680;2023-04-03T03:05:24;2.80;86.40
298;DHT22;133;49.626;9.680;2023-04-03T03:07:49;2.70;86.60
298;DHT22;133;49.626;9.680;2023-04-03T03:10:15;2.60;86.50
298;DHT22;133;49.626;9.680;2023-04-03T03:12:41;2.60;86.90
298;DHT22;133;49.626;9.680;2023-04-03T03:15:07;2.60;87.50
298;DHT22;133;49.626;9.680;2023-04-03T03:17:33;2.60;88.00
298;DHT22;133;49.626;9.680;2023-04-03T03:19:59;2.70;88.50
298;DHT22;133;49.626;9.680;2023-04-03T03:22:26;2.70;88.80
298;DHT22;133;49.626;9.680;2023-04-03T03:24:51;2.80;88.60
298;DHT22;133;49.626;9.680;2023-04-03T03:27:17;2.80;88.30
298;DHT22;133;49.626;9.680;2023-04-03T03:29:43;2.60;87.50
298;DHT22;133;49.626;9.680;2023-04-03T03:32:08;2.60;88.20
298;DHT22;133;49.626;9.680;2023-04-03T03:34:34;2.60;88.90
298;DHT22;133;49.626;9.680;2023-04-03T03:37:00;2.50;88.50
298;DHT22;133;49.626;9.680;2023-04-03T03:39:26;2.40;88.10
298;DHT22;133;49.626;9.680;2023-04-03T03:41:52;2.30;88.40
298;DHT22;133;49.626;9.680;2023-04-03T03:44:19;2.30;88.60
298;DHT22;133;49.626;9.680;2023-04-03T03:46:44;2.30;88.10
298;DHT22;133;49.626;9.680;2023-04-03T03:49:10;2.30;88.60
298;DHT22;133;49.626;9.680;2023-04-03T03:51:37;2.20;89.20
298;DHT22;133;49.626;9.680;2023-04-03T03:54:03;2.10;89.70
298;DHT22;133;49.626;9.680;2023-04-03T03:56:29;2.10;90.00
298;DHT22;133;49.626;9.680;2023-04-03T03:58:54;2.10;89.70
298;DHT22;133;49.626;9.680;2023-04-03T04:01:22;2.10;90.00
298;DHT22;133;49.626;9.680;2023-04-03T04:03:47;2.10;90.00
298;DHT22;133;49.626;9.680;2023-04-03T04:06:13;2.00;89.70
298;DHT22;133;49.626;9.680;2023-04-03T04:08:40;2.10;90.00
298;DHT22;133;49.626;9.680;2023-04-03T04:11:06;2.10;90.50
298;DHT22;133;49.626;9.680;2023-04-03T04:13:31;2.10;90.10
298;DHT22;133;49.626;9.680;2023-04-03T04:15:57;2.20;89.90
298;DHT22;133;49.626;9.680;2023-04-03T04:18:22;2.20;89.80
298;DHT22;133;49.626;9.680;2023-04-03T04:20:49;2.10;90.10
298;DHT22;133;49.626;9.680;2023-04-03T04:23:15;2.20;90.50
298;DHT22;133;49.626;9.680;2023-04-03T04:25:44;2.10;90.80
298;DHT22;133;49.626;9.680;2023-04-03T04:28:11;2.20;91.00
298;DHT22;133;49.626;9.680;2023-04-03T04:30:36;2.30;91.10
298;DHT22;133;49.626;9.680;2023-04-03T04:33:02;2.30;91.40
298;DHT22;133;49.626;9.680;2023-04-03T04:35:28;2.40;91.70
298;DHT22;133;49.626;9.680;2023-04-03T04:37:54;2.50;91.60
298;DHT22;133;49.626;9.680;2023-04-03T04:40:20;2.50;91.20
298;DHT22;133;49.626;9.680;2023-04-03T04:42:46;2.60;91.00
298;DHT22;133;49.626;9.680;2023-04-03T04:45:12;2.70;91.00
298;DHT22;133;49.626;9.680;2023-04-03T04:47:37;2.80;91.20
298;DHT22;133;49.626;9.680;2023-04-03T04:50:03;2.90;90.90
298;DHT22;133;49.626;9.680;2023-04-03T04:52:29;2.90;90.70
298;DHT22;133;49.626;9.680;2023-04-03T04:54:55;2.90;91.20
298;DHT22;133;49.626;9.680;2023-04-03T04:57:20;3.00;91.40
298;DHT22;133;49.626;9.680;2023-04-03T04:59:46;3.10;91.30
298;DHT22;133;49.626;9.680;2023-04-03T05:02:12;3.20;90.60
298;DHT22;133;49.626;9.680;2023-04-03T05:04:37;3.30;90.80
298;DHT22;133;49.626;9.680;2023-04-03T05:07:03;3.40;91.00
298;DHT22;133;49.626;9.680;2023-04-03T05:09:29;3.50;90.90
298;DHT22;133;49.626;9.680;2023-04-03T05:11:54;3.40;90.70
298;DHT22;133;49.626;9.680;2023-04-03T05:14:21;3.50;90.60
298;DHT22;133;49.626;9.680;2023-04-03T05:16:47;3.60;90.50
298;DHT22;133;49.626;9.680;2023-04-03T05:19:13;3.70;90.10
298;DHT22;133;49.626;9.680;2023-04-03T05:21:38;3.70;89.50
298;DHT22;133;49.626;9.680;2023-04-03T05:24:04;3.70;89.30
298;DHT22;133;49.626;9.680;2023-04-03T05:26:31;3.70;89.30
298;DHT22;133;49.626;9.680;2023-04-03T05:28:56;3.70;89.40
298;DHT22;133;49.626;9.680;2023-04-03T05:31:22;3.80;88.70
298;DHT22;133;49.626;9.680;2023-04-03T05:33:48;3.80;88.70
298;DHT22;133;49.626;9.680;2023-04-03T05:36:14;3.80;88.60
298;DHT22;133;49.626;9.680;2023-04-03T05:38:39;3.80;88.20
298;DHT22;133;49.626;9.680;2023-04-03T05:41:05;3.80;88.10
298;DHT22;133;49.626;9.680;2023-04-03T05:43:31;3.90;87.90
298;DHT22;133;49.626;9.680;2023-04-03T05:45:58;3.90;88.00
298;DHT22;133;49.626;9.680;2023-04-03T05:48:23;3.80;88.10
298;DHT22;133;49.626;9.680;2023-04-03T05:50:49;3.80;87.90
298;DHT22;133;49.626;9.680;2023-04-03T05:53:23;3.90;87.80
298;DHT22;133;49.626;9.680;2023-04-03T05:55:51;3.90;87.60
298;DHT22;133;49.626;9.680;2023-04-03T05:58:16;4.00;87.40
298;DHT22;133;49.626;9.680;2023-04-03T06:00:42;4.10;86.90
298;DHT22;133;49.626;9.680;2023-04-03T06:03:08;4.10;86.40
298;DHT22;133;49.626;9.680;2023-04-03T06:05:33;4.20;86.30
298;DHT22;133;49.626;9.680;2023-04-03T06:07:59;4.20;86.50
298;DHT22;133;49.626;9.680;2023-04-03T06:10:25;4.20;85.90
298;DHT22;133;49.626;9.680;2023-04-03T06:12:51;4.30;85.50
298;DHT22;133;49.626;9.680;2023-04-03T06:15:17;4.30;84.50
298;DHT22;133;49.626;9.680;2023-04-03T06:17:43;4.30;84.40
298;DHT22;133;49.626;9.680;2023-04-03T06:20:10;4.20;84.20
298;DHT22;133;49.626;9.680;2023-04-03T06:22:36;4.10;84.30
298;DHT22;133;49.626;9.680;2023-04-03T06:25:02;4.20;84.20
298;DHT22;133;49.626;9.680;2023-04-03T06:27:28;4.10;84.40
298;DHT22;133;49.626;9.680;2023-04-03T06:29:53;4.10;84.30
298;DHT22;133;49.626;9.680;2023-04-03T06:32:19;4.10;83.90
298;DHT22;133;49.626;9.680;2023-04-03T06:34:45;4.20;84.60
298;DHT22;133;49.626;9.680;2023-04-03T06:37:19;4.10;84.40
298;DHT22;133;49.626;9.680;2023-04-03T06:39:45;4.00;84.00
298;DHT22;133;49.626;9.680;2023-04-03T06:42:11;4.00;83.50
298;DHT22;133;49.626;9.680;2023-04-03T06:44:37;4.00;84.00
298;DHT22;133;49.626;9.680;2023-04-03T06:47:03;4.00;84.30
298;DHT22;133;49.626;9.680;2023-04-03T06:49:29;4.10;84.50
298;DHT22;133;49.626;9.680;2023-04-03T06:51:55;4.20;84.00
298;DHT22;133;49.626;9.680;2023-04-03T06:54:22;4.20;83.20
298;DHT22;133;49.626;9.680;2023-04-03T06:56:48;4.20;83.60
298;DHT22;133;49.626;9.680;2023-04-03T06:59:14;4.20;83.80
298;DHT22;133;49.626;9.680;2023-04-03T07:01:40;4.30;83.50
298;DHT22;133;49.626;9.680;2023-04-03T07:04:06;4.30;83.30
298;DHT22;133;49.626;9.680;2023-04-03T07:06:33;4.40;83.00
298;DHT22;133;49.626;9.680;2023-04-03T07:08:59;4.40;82.70
298;DHT22;133;49.626;9.680;2023-04-03T07:11:25;4.50;82.70
298;DHT22;133;49.626;9.680;2023-04-03T07:13:52;4.40;82.20
298;DHT22;133;49.626;9.680;2023-04-03T07:16:18;4.70;82.70
298;DHT22;133;49.626;9.680;2023-04-03T07:18:44;4.90;82.30
298;DHT22;133;49.626;9.680;2023-04-03T07:21:10;5.00;81.40
298;DHT22;133;49.626;9.680;2023-04-03T07:23:36;5.00;81.40
298;DHT22;133;49.626;9.680;2023-04-03T07:26:02;5.10;80.50
298;DHT22;133;49.626;9.680;2023-04-03T07:28:28;5.20;81.00
298;DHT22;133;49.626;9.680;2023-04-03T07:31:03;5.20;80.60
298;DHT22;133;49.626;9.680;2023-04-03T07:33:29;5.40;80.60
298;DHT22;133;49.626;9.680;2023-04-03T07:35:55;5.50;79.90
298;DHT22;133;49.626;9.680;2023-04-03T07:38:20;5.70;80.00
298;DHT22;133;49.626;9.680;2023-04-03T07:40:50;5.90;79.80
298;DHT22;133;49.626;9.680;2023-04-03T07:43:19;6.10;79.00
298;DHT22;133;49.626;9.680;2023-04-03T07:45:45;6.10;77.60
298;DHT22;133;49.626;9.680;2023-04-03T07:48:13;6.20;76.90
298;DHT22;133;49.626;9.680;2023-04-03T07:50:42;6.40;77.80
298;DHT22;133;49.626;9.680;2023-04-03T07:53:08;6.50;76.60
298;DHT22;133;49.626;9.680;2023-04-03T07:55:34;6.40;75.10
298;DHT22;133;49.626;9.680;2023-04-03T07:58:05;6.40;75.40
298;DHT22;133;49.626;9.680;2023-04-03T08:00:31;6.30;76.30
298;DHT22;133;49.626;9.680;2023-04-03T08:02:57;6.10;76.60
298;DHT22;133;49.626;9.680;2023-04-03T08:05:22;6.20;76.80
298;DHT22;133;49.626;9.680;2023-04-03T08:07:48;6.10;76.80
298;DHT22;133;49.626;9.680;2023-04-03T08:10:14;6.10;76.20
298;DHT22;133;49.626;9.680;2023-04-03T08:12:41;6.00;76.30
298;DHT22;133;49.626;9.680;2023-04-03T08:15:07;6.00;76.20
298;DHT22;133;49.626;9.680;2023-04-03T08:17:33;6.20;76.30
298;DHT22;133;49.626;9.680;2023-04-03T08:20:00;6.30;75.00
298;DHT22;133;49.626;9.680;2023-04-03T08:22:26;6.40;75.50
298;DHT22;133;49.626;9.680;2023-04-03T08:24:51;6.50;75.90
298;DHT22;133;49.626;9.680;2023-04-03T08:27:17;6.60;74.30
298;DHT22;133;49.626;9.680;2023-04-03T08:29:43;6.80;74.20
298;DHT22;133;49.626;9.680;2023-04-03T08:32:08;7.00;73.70
298;DHT22;133;49.626;9.680;2023-04-03T08:34:34;7.10;73.00
298;DHT22;133;49.626;9.680;2023-04-03T08:37:01;7.10;73.10
298;DHT22;133;49.626;9.680;2023-04-03T08:39:27;7.10;73.60
298;DHT22;133;49.626;9.680;2023-04-03T08:41:55;7.00;74.00
298;DHT22;133;49.626;9.680;2023-04-03T08:49:46;7.40;73.10
298;DHT22;133;49.626;9.680;2023-04-03T08:52:41;7.50;72.40
298;DHT22;133;49.626;9.680;2023-04-03T08:55:24;7.70;73.00
298;DHT22;133;49.626;9.680;2023-04-03T08:57:58;7.80;71.10
298;DHT22;133;49.626;9.680;2023-04-03T09:00:28;7.80;71.40
298;DHT22;133;49.626;9.680;2023-04-03T09:02:56;7.90;71.10
298;DHT22;133;49.626;9.680;2023-04-03T09:05:54;8.00;70.90
298;DHT22;133;49.626;9.680;2023-04-03T09:10:46;8.30;71.50
298;DHT22;133;49.626;9.680;2023-04-03T09:13:35;8.40;69.90
298;DHT22;133;49.626;9.680;2023-04-03T09:16:16;8.60;69.30
298;DHT22;133;49.626;9.680;2023-04-03T09:18:50;8.70;69.40
298;DHT22;133;49.626;9.680;2023-04-03T09:21:27;8.90;69.10
298;DHT22;133;49.626;9.680;2023-04-03T09:23:57;8.90;67.30
298;DHT22;133;49.626;9.680;2023-04-03T09:27:03;8.80;67.00
298;DHT22;133;49.626;9.680;2023-04-03T09:29:22;8.90;67.80
298;DHT22;133;49.626;9.680;2023-04-03T09:31:52;9.20;66.60
298;DHT22;133;49.626;9.680;2023-04-03T09:34:23;9.50;66.20
298;DHT22;133;49.626;9.680;2023-04-03T09:36:56;9.50;66.40
298;DHT22;133;49.626;9.680;2023-04-03T09:39:27;9.30;65.70
298;DHT22;133;49.626;9.680;2023-04-03T09:44:29;9.50;65.70
298;DHT22;133;49.626;9.680;2023-04-03T09:46:55;9.50;66.80
298;DHT22;133;49.626;9.680;2023-04-03T09:49:21;9.80;65.80
298;DHT22;133;49.626;9.680;2023-04-03T09:51:47;9.90;65.10
298;DHT22;133;49.626;9.680;2023-04-03T09:54:34;10.00;65.50
298;DHT22;133;49.626;9.680;2023-04-03T09:57:11;9.80;65.30
298;DHT22;133;49.626;9.680;2023-04-03T09:59:48;9.70;64.90
298;DHT22;133;49.626;9.680;2023-04-03T10:02:35;9.70;64.60
298;DHT22;133;49.626;9.680;2023-04-03T10:05:03;9.60;63.90
298;DHT22;133;49.626;9.680;2023-04-03T10:07:34;9.60;64.00
298;DHT22;133;49.626;9.680;2023-04-03T10:10:15;9.60;64.20
298;DHT22;133;49.626;9.680;2023-04-03T10:12:43;9.50;62.60
298;DHT22;133;49.626;9.680;2023-04-03T10:15:16;9.50;62.50
298;DHT22;133;49.626;9.680;2023-04-03T10:20:47;9.20;63.20
298;DHT22;133;49.626;9.680;2023-04-03T10:23:21;9.10;63.80
298;DHT22;133;49.626;9.680;2023-04-03T10:26:23;9.10;63.80
298;DHT22;133;49.626;9.680;2023-04-03T10:36:44;9.90;63.50
298;DHT22;133;49.626;9.680;2023-04-03T10:39:39;10.10;61.90
298;DHT22;133;49.626;9.680;2023-04-03T10:47:44;10.70;61.40
298;DHT22;133;49.626;9.680;2023-04-03T10:50:29;10.90;61.00
298;DHT22;133;49.626;9.680;2023-04-03T10:53:26;10.80;58.70
298;DHT22;133;49.626;9.680;2023-04-03T10:58:41;11.20;58.30
298;DHT22;133;49.626;9.680;2023-04-03T11:01:21;11.50;57.10
298;DHT22;133;49.626;9.680;2023-04-03T11:03:54;12.00;56.80
298;DHT22;133;49.626;9.680;2023-04-03T11:06:21;12.40;55.60
298;DHT22;133;49.626;9.680;2023-04-03T11:08:53;12.60;54.40
298;DHT22;133;49.626;9.680;2023-04-03T11:11:25;12.20;54.90
298;DHT22;133;49.626;9.680;2023-04-03T11:14:02;12.10;54.40
298;DHT22;133;49.626;9.680;2023-04-03T11:16:31;11.60;55.30
298;DHT22;133;49.626;9.680;2023-04-03T11:22:03;12.60;54.60
298;DHT22;133;49.626;9.680;2023-04-03T11:24:33;13.60;53.70
298;DHT22;133;49.626;9.680;2023-04-03T11:27:00;14.00;51.60
298;DHT22;133;49.626;9.680;2023-04-03T11:29:35;14.10;50.20
298;DHT22;133;49.626;9.680;2023-04-03T11:32:36;12.80;50.90
298;DHT22;133;49.626;9.680;2023-04-03T11:35:08;13.00;52.30
298;DHT22;133;49.626;9.680;2023-04-03T11:37:47;14.00;51.70
298;DHT22;133;49.626;9.680;2023-04-03T11:42:52;13.90;48.40
298;DHT22;133;49.626;9.680;2023-04-03T11:48:42;15.00;47.40
298;DHT22;133;49.626;9.680;2023-04-03T11:50:47;15.60;46.00
298;DHT22;133;49.626;9.680;2023-04-03T11:58:18;14.00;48.20
298;DHT22;133;49.626;9.680;2023-04-03T12:16:24;15.40;47.30
298;DHT22;133;49.626;9.680;2023-04-03T12:29:29;17.60;43.10
298;DHT22;133;49.626;9.680;2023-04-03T12:32:10;18.00;42.40
298;DHT22;133;49.626;9.680;2023-04-03T12:48:22;18.40;42.50
298;DHT22;133;49.626;9.680;2023-04-03T12:50:50;18.00;41.20
298;DHT22;133;49.626;9.680;2023-04-03T12:53:25;16.90;42.00
298;DHT22;133;49.626;9.680;2023-04-03T12:55:56;16.80;42.90
298;DHT22;133;49.626;9.680;2023-04-03T12:58:24;17.10;44.80
298;DHT22;133;49.626;9.680;2023-04-03T13:01:13;17.00;42.30
298;DHT22;133;49.626;9.680;2023-04-03T13:03:43;16.50;43.10
298;DHT22;133;49.626;9.680;2023-04-03T13:06:27;16.70;43.50
298;DHT22;133;49.626;9.680;2023-04-03T13:08:56;16.60;42.90
298;DHT22;133;49.626;9.680;2023-04-03T13:11:27;16.50;42.80
298;DHT22;133;49.626;9.680;2023-04-03T13:14:03;16.40;43.80
298;DHT22;133;49.626;9.680;2023-04-03T13:16:31;16.60;43.50
298;DHT22;133;49.626;9.680;2023-04-03T13:18:57;16.20;43.30
298;DHT22;133;49.626;9.680;2023-04-03T13:21:28;16.30;43.10
298;DHT22;133;49.626;9.680;2023-04-03T13:23:57;16.70;42.90
298;DHT22;133;49.626;9.680;2023-04-03T13:26:28;16.80;41.60
298;DHT22;133;49.626;9.680;2023-04-03T13:28:58;17.30;42.20
298;DHT22;133;49.626;9.680;2023-04-03T13:31:30;17.60;41.70
298;DHT22;133;49.626;9.680;2023-04-03T13:34:20;17.70;40.40
298;DHT22;133;49.626;9.680;2023-04-03T13:37:01;18.30;41.00
298;DHT22;133;49.626;9.680;2023-04-03T13:39:32;18.90;39.90
298;DHT22;133;49.626;9.680;2023-04-03T13:42:01;18.60;40.30
298;DHT22;133;49.626;9.680;2023-04-03T13:44:36;18.90;39.30
298;DHT22;133;49.626;9.680;2023-04-03T13:49:45;19.40;38.60
298;DHT22;133;49.626;9.680;2023-04-03T13:55:20;19.30;38.30
298;DHT22;133;49.626;9.680;2023-04-03T13:57:52;18.80;38.60
298;DHT22;133;49.626;9.680;2023-04-03T14:00:31;19.10;39.00
298;DHT22;133;49.626;9.680;2023-04-03T14:02:57;19.10;38.30
298;DHT22;133;49.626;9.680;2023-04-03T14:05:24;19.20;37.20
298;DHT22;133;49.626;9.680;2023-04-03T14:07:51;18.70;38.00
298;DHT22;133;49.626;9.680;2023-04-03T14:10:17;18.70;37.70
298;DHT22;133;49.626;9.680;2023-04-03T14:12:43;18.30;38.60
298;DHT22;133;49.626;9.680;2023-04-03T14:15:28;18.20;39.00
298;DHT22;133;49.626;9.680;2023-04-03T14:17:54;17.70;39.40
298;DHT22;133;49.626;9.680;2023-04-03T14:20:24;17.40;38.90
298;DHT22;133;49.626;9.680;2023-04-03T14:22:51;17.00;40.60
298;DHT22;133;49.626;9.680;2023-04-03T14:25:17;17.20;40.70
298;DHT22;133;49.626;9.680;2023-04-03T14:27:46;17.20;39.80
298;DHT22;133;49.626;9.680;2023-04-03T14:30:19;16.80;40.60
298;DHT22;133;49.626;9.680;2023-04-03T14:32:45;16.20;40.30
298;DHT22;133;49.626;9.680;2023-04-03T14:35:12;16.30;40.40
298;DHT22;133;49.626;9.680;2023-04-03T14:37:38;16.10;39.80
298;DHT22;133;49.626;9.680;2023-04-03T14:40:06;16.00;39.90
298;DHT22;133;49.626;9.680;2023-04-03T14:42:35;15.90;41.00
298;DHT22;133;49.626;9.680;2023-04-03T14:45:05;15.70;41.80
298;DHT22;133;49.626;9.680;2023-04-03T14:47:31;15.40;42.00
298;DHT22;133;49.626;9.680;2023-04-03T14:49:58;15.50;40.30
298;DHT22;133;49.626;9.680;2023-04-03T14:52:27;15.40;40.90
298;DHT22;133;49.626;9.680;2023-04-03T14:54:54;15.20;41.30
298;DHT22;133;49.626;9.680;2023-04-03T14:57:23;15.00;41.60
298;DHT22;133;49.626;9.680;2023-04-03T14:59:49;14.50;42.60
298;DHT22;133;49.626;9.680;2023-04-03T15:02:28;14.50;42.60
298;DHT22;133;49.626;9.680;2023-04-03T15:04:55;14.70;41.30
298;DHT22;133;49.626;9.680;2023-04-03T15:07:22;14.30;42.40
298;DHT22;133;49.626;9.680;2023-04-03T15:09:48;14.50;42.40
298;DHT22;133;49.626;9.680;2023-04-03T15:12:14;14.70;42.90
298;DHT22;133;49.626;9.680;2023-04-03T15:14:40;14.50;42.40
298;DHT22;133;49.626;9.680;2023-04-03T15:17:06;14.50;41.60
298;DHT22;133;49.626;9.680;2023-04-03T15:19:37;14.00;42.60
298;DHT22;133;49.626;9.680;2023-04-03T15:22:03;13.80;42.60
298;DHT22;133;49.626;9.680;2023-04-03T15:24:28;13.90;43.40
298;DHT22;133;49.626;9.680;2023-04-03T15:26:54;13.70;42.50
298;DHT22;133;49.626;9.680;2023-04-03T15:29:20;13.70;42.40
298;DHT22;133;49.626;9.680;2023-04-03T15:31:46;13.60;42.60
298;DHT22;133;49.626;9.680;2023-04-03T15:34:11;13.60;43.40
298;DHT22;133;49.626;9.680;2023-04-03T15:36:37;13.60;43.90
298;DHT22;133;49.626;9.680;2023-04-03T15:39:03;13.40;44.60
298;DHT22;133;49.626;9.680;2023-04-03T15:41:29;13.50;44.60
298;DHT22;133;49.626;9.680;2023-04-03T15:43:54;13.70;44.30
298;DHT22;133;49.626;9.680;2023-04-03T15:46:20;13.80;44.20
298;DHT22;133;49.626;9.680;2023-04-03T15:48:46;13.50;44.10
298;DHT22;133;49.626;9.680;2023-04-03T15:51:11;13.20;44.50
298;DHT22;133;49.626;9.680;2023-04-03T15:53:37;13.20;45.20
298;DHT22;133;49.626;9.680;2023-04-03T15:56:03;12.90;45.60
298;DHT22;133;49.626;9.680;2023-04-03T15:58:30;12.80;45.50
298;DHT22;133;49.626;9.680;2023-04-03T16:00:55;12.80;45.60
298;DHT22;133;49.626;9.680;2023-04-03T16:03:21;13.10;44.70
298;DHT22;133;49.626;9.680;2023-04-03T16:05:50;13.00;43.70
298;DHT22;133;49.626;9.680;2023-04-03T16:08:15;12.70;44.30
298;DHT22;133;49.626;9.680;2023-04-03T16:10:43;12.50;45.60
298;DHT22;133;49.626;9.680;2023-04-03T16:13:14;12.40;46.10
298;DHT22;133;49.626;9.680;2023-04-03T16:15:40;11.60;46.30
298;DHT22;133;49.626;9.680;2023-04-03T16:18:07;11.30;47.60
298;DHT22;133;49.626;9.680;2023-04-03T16:20:34;10.90;47.90
298;DHT22;133;49.626;9.680;2023-04-03T16:23:01;10.40;48.40
298;DHT22;133;49.626;9.680;2023-04-03T16:25:27;10.40;49.40
298;DHT22;133;49.626;9.680;2023-04-03T16:27:53;10.40;49.80
298;DHT22;133;49.626;9.680;2023-04-03T16:30:18;10.50;50.00
298;DHT22;133;49.626;9.680;2023-04-03T16:32:45;10.60;49.80
298;DHT22;133;49.626;9.680;2023-04-03T16:35:10;10.80;49.50
298;DHT22;133;49.626;9.680;2023-04-03T16:37:37;10.90;49.30
298;DHT22;133;49.626;9.680;2023-04-03T16:40:03;10.90;49.20
298;DHT22;133;49.626;9.680;2023-04-03T16:42:30;10.60;48.50
298;DHT22;133;49.626;9.680;2023-04-03T16:44:56;10.30;49.40
298;DHT22;133;49.626;9.680;2023-04-03T16:47:22;10.40;49.90
298;DHT22;133;49.626;9.680;2023-04-03T16:49:47;10.00;50.20
298;DHT22;133;49.626;9.680;2023-04-03T16:52:14;9.90;50.20
298;DHT22;133;49.626;9.680;2023-04-03T16:54:39;9.90;50.70
298;DHT22;133;49.626;9.680;2023-04-03T16:57:05;9.80;49.90
298;DHT22;133;49.626;9.680;2023-04-03T16:59:31;9.40;51.10
298;DHT22;133;49.626;9.680;2023-04-03T17:01:56;9.40;51.40
298;DHT22;133;49.626;9.680;2023-04-03T17:04:22;9.30;51.60
298;DHT22;133;49.626;9.680;2023-04-03T17:06:54;9.30;52.10
298;DHT22;133;49.626;9.680;2023-04-03T17:09:20;9.10;52.50
298;DHT22;133;49.626;9.680;2023-04-03T17:11:46;9.00;53.10
298;DHT22;133;49.626;9.680;2023-04-03T17:14:12;8.80;53.40
298;DHT22;133;49.626;9.680;2023-04-03T17:16:38;8.60;52.90
298;DHT22;133;49.626;9.680;2023-04-03T17:19:04;8.50;52.70
298;DHT22;133;49.626;9.680;2023-04-03T17:21:31;8.30;53.20
298;DHT22;133;49.626;9.680;2023-04-03T17:24:01;8.20;53.20
298;DHT22;133;49.626;9.680;2023-04-03T17:26:28;8.10;53.90
298;DHT22;133;49.626;9.680;2023-04-03T17:28:53;8.00;54.00
298;DHT22;133;49.626;9.680;2023-04-03T17:31:19;7.90;54.60
298;DHT22;133;49.626;9.680;2023-04-03T17:33:45;7.90;54.70
298;DHT22;133;49.626;9.680;2023-04-03T17:36:11;7.70;54.70
298;DHT22;133;49.626;9.680;2023-04-03T17:38:37;7.60;55.00
298;DHT22;133;49.626;9.680;2023-04-03T17:41:07;7.70;55.90
298;DHT22;133;49.626;9.680;2023-04-03T17:43:33;7.70;55.30
298;DHT22;133;49.626;9.680;2023-04-03T17:46:01;7.60;55.00
298;DHT22;133;49.626;9.680;2023-04-03T17:48:31;7.50;55.40
298;DHT22;133;49.626;9.680;2023-04-03T17:50:57;7.50;55.90
298;DHT22;133;49.626;9.680;2023-04-03T17:53:23;7.40;55.90
298;DHT22;133;49.626;9.680;2023-04-03T17:55:49;7.30;55.80
298;DHT22;133;49.626;9.680;2023-04-03T17:58:15;7.30;55.90
298;DHT22;133;49.626;9.680;2023-04-03T18:00:41;7.30;56.30
298;DHT22;133;49.626;9.680;2023-04-03T18:03:07;7.10;56.80
298;DHT22;133;49.626;9.680;2023-04-03T18:05:32;7.10;56.80
298;DHT22;133;49.626;9.680;2023-04-03T18:07:59;7.10;56.70
298;DHT22;133;49.626;9.680;2023-04-03T18:10:25;7.00;56.70
298;DHT22;133;49.626;9.680;2023-04-03T18:12:52;6.90;57.40
298;DHT22;133;49.626;9.680;2023-04-03T18:15:18;6.90;58.90
298;DHT22;133;49.626;9.680;2023-04-03T18:17:44;6.80;58.00
298;DHT22;133;49.626;9.680;2023-04-03T18:20:11;6.70;57.90
298;DHT22;133;49.626;9.680;2023-04-03T18:22:39;6.60;58.70
298;DHT22;133;49.626;9.680;2023-04-03T18:25:05;6.40;58.90
298;DHT22;133;49.626;9.680;2023-04-03T18:27:31;6.40;58.60
298;DHT22;133;49.626;9.680;2023-04-03T18:30:00;6.30;59.50